This is the latest recevied weather packets stored in our database for station/object OE-11099. If no packets are shown the sender has not sent any weather packets the latest 10 day(s).
| Time | Temp. | Humidity | Pressure | Rain* | Wind** | Luminosity | Snow |
|---|---|---|---|---|---|---|---|
| 1787928079 | 23.89° C | 68% | 1012.2 hPa | 0 mm | - | 253 W/m² | - |
| 1787927705 | 23.33° C | 66% | 1012.4 hPa | 0 mm | - | 186 W/m² | - |
| 1787927105 | 23.89° C | 66% | 1012.3 hPa | 0 mm | - | 233 W/m² | - |
| 1787926279 | 24.44° C | 68% | 1012.5 hPa | 0 mm | - | 412 W/m² | - |
| 1787925906 | 23.33° C | 73% | 1013.3 hPa | 0 mm | - | 233 W/m² | - |
| 1787925306 | 23.33° C | 71% | 1013.3 hPa | 0 mm | - | 339 W/m² | - |
| 1787924479 | 23.33° C | 71% | 1012.7 hPa | 0 mm | - | 226 W/m² | - |
| 1787924106 | 23.33° C | 73% | 1012.4 hPa | 0 mm | - | 452 W/m² | - |
| 1787923506 | 22.78° C | 73% | 1012.6 hPa | 0 mm | - | 605 W/m² | - |
| 1787922677 | 22.78° C | 71% | 1012.8 hPa | 0 mm | - | 399 W/m² | - |
| 1787922305 | 22.78° C | 74% | 1013.1 hPa | 0.51 mm | - | 638 W/m² | - |
| 1787921706 | 22.78° C | 76% | 1013.7 hPa | 0.51 mm | - | 525 W/m² | - |
| 1787920878 | 22.22° C | 80% | 1014 hPa | 0.51 mm | - | 213 W/m² | - |
| 1787920506 | 22.22° C | 80% | 1014.1 hPa | 0.51 mm | - | 246 W/m² | - |
| 1787919906 | 21.67° C | 80% | 1014.3 hPa | 0.51 mm | - | 206 W/m² | - |
| 1787919078 | 22.22° C | 82% | 1014.5 hPa | 0.51 mm | - | 319 W/m² | - |
| 1787918705 | 21.67° C | 80% | 1014.1 hPa | 0.25 mm | - | 106 W/m² | - |
| 1787918105 | 23.33° C | 71% | 1014 hPa | 0 mm | - | 106 W/m² | - |
| 1787917278 | 24.44° C | 64% | 1012.8 hPa | 0 mm | - | 186 W/m² | - |
| 1787916906 | 24.44° C | 60% | 1012.2 hPa | 0 mm | - | 146 W/m² | - |
| 1787916306 | 25.56° C | 55% | 1010.9 hPa | 0 mm | - | 186 W/m² | - |
| 1787915478 | 26.67° C | 50% | 1010.5 hPa | 0 mm | - | 372 W/m² | - |
| 1787915106 | 27.78° C | 47% | 1010 hPa | 0 mm | - | 898 W/m² | - |
| 1787914506 | 27.78° C | 46% | 1009.6 hPa | 0 mm | - | 652 W/m² | - |
| 1787913679 | 27.22° C | 47% | 1009.6 hPa | 0 mm | - | 266 W/m² | - |
* Rain latest hour (hover to see other rain measurements)
** Current wind speed in m/s (hover to see current wind gust speed)